Sosnovo-Ozerskoe, Russia
Current Conditions -  °F | °C
As of 11:00 PM on Saturday 25 Oct 2014 (Local Time) from UIAA Reporting Station
Clear Clear  
Wind Chill:   Ceiling: Unl
Heat Index: 18°   Visibility: 6mi
Dew Point: -2°   Wind: 11mph
Humidity: 42%   Direction: 330°NNW
Pressure: 30.36"   Gusts: NA
Location:  52.53°N, 111.55°E
Report Text: UIAA 251500Z 33005MPS 9999 SKC M08/M19 Q1028 NOSIG RMK QFE71229CLRD70
Loading
Personal Weather Stations






























Interactive Weather Map
Tropical Storm Tracking
New forecast layout! Learn more

10-Day Weather Forecast

Advertisements
Track Severe Weather on mobile